createdAt,value
2023-02-23T00:01:28.660Z,38.77
2023-02-23T00:03:57.536Z,41.20
2023-02-23T00:06:26.736Z,42.57
2023-02-23T00:08:53.879Z,41.00
2023-02-23T00:11:21.455Z,40.17
2023-02-23T00:13:52.554Z,39.47
2023-02-23T00:16:21.982Z,40.23
2023-02-23T00:19:00.451Z,45.07
2023-02-23T00:21:30.049Z,44.47
2023-02-23T00:23:59.754Z,44.17
2023-02-23T00:26:31.640Z,40.07
2023-02-23T00:28:58.498Z,44.30
2023-02-23T00:31:27.306Z,43.33
2023-02-23T00:33:55.649Z,45.37
2023-02-23T00:36:25.385Z,43.50
2023-02-23T00:38:58.262Z,45.10
2023-02-23T00:41:30.421Z,47.07
2023-02-23T00:43:59.599Z,43.27
2023-02-23T00:46:28.891Z,44.33
2023-02-23T00:48:57.261Z,48.70
2023-02-23T00:51:32.703Z,49.43
2023-02-23T00:54:00.539Z,49.80
2023-02-23T00:56:28.199Z,50.43
2023-02-23T00:58:55.452Z,57.93
2023-02-23T01:01:22.654Z,58.73
2023-02-23T01:03:49.273Z,62.77
2023-02-23T01:06:17.709Z,57.43
2023-02-23T01:08:50.568Z,58.73
2023-02-23T01:11:21.462Z,59.63
2023-02-23T01:13:49.262Z,55.53
2023-02-23T01:16:18.102Z,65.00
2023-02-23T01:18:45.659Z,65.83
2023-02-23T01:21:21.215Z,67.17
2023-02-23T01:23:48.074Z,69.27
2023-02-23T01:26:25.914Z,66.07
2023-02-23T01:28:55.562Z,65.07
2023-02-23T01:31:23.983Z,62.33
2023-02-23T01:33:54.878Z,65.23
2023-02-23T01:36:21.731Z,58.83
2023-02-23T01:38:49.261Z,62.67
2023-02-23T01:41:16.709Z,64.73
2023-02-23T01:43:55.564Z,61.97
2023-02-23T01:46:22.373Z,57.93
2023-02-23T01:48:49.844Z,61.27
2023-02-23T01:51:21.096Z,58.03
2023-02-23T01:53:56.243Z,60.07
2023-02-23T01:56:27.762Z,61.23
2023-02-23T01:58:58.000Z,63.30
2023-02-23T02:01:24.960Z,70.43
2023-02-23T02:04:06.892Z,63.40
2023-02-23T02:06:36.377Z,58.73
2023-02-23T02:09:08.973Z,61.17
2023-02-23T02:11:37.262Z,62.20
2023-02-23T02:14:12.969Z,57.93
2023-02-23T02:17:10.266Z,62.63
2023-02-23T02:20:15.538Z,69.03
2023-02-23T02:23:16.313Z,65.17
2023-02-23T02:25:48.925Z,60.87
2023-02-23T02:28:43.378Z,59.10
2023-02-23T02:31:28.155Z,60.17
2023-02-23T02:34:25.986Z,69.60
2023-02-23T02:37:07.482Z,60.70
2023-02-23T02:39:53.636Z,69.43
2023-02-23T02:42:29.442Z,59.03
2023-02-23T02:45:30.774Z,60.27
2023-02-23T02:48:06.367Z,61.40
2023-02-23T02:50:48.121Z,60.77
2023-02-23T02:53:21.301Z,63.23
2023-02-23T02:55:49.251Z,58.57
2023-02-23T02:58:17.870Z,63.73
2023-02-23T03:01:06.626Z,65.70
2023-02-23T03:03:51.869Z,59.67
2023-02-23T03:06:47.804Z,65.77
2023-02-23T03:09:45.094Z,58.70
2023-02-23T03:12:47.794Z,62.20
2023-02-23T03:16:11.749Z,64.50
2023-02-23T03:19:25.140Z,60.80
2023-02-23T03:22:26.218Z,59.97
2023-02-23T03:25:21.087Z,59.47
2023-02-23T03:28:34.193Z,62.43
2023-02-23T03:31:49.542Z,59.27
2023-02-23T03:34:52.460Z,59.60
2023-02-23T03:37:49.621Z,60.00
2023-02-23T03:40:42.135Z,58.77
2023-02-23T03:43:35.171Z,62.93
2023-02-23T03:46:23.500Z,64.80
2023-02-23T03:49:12.466Z,66.67
2023-02-23T03:52:00.911Z,65.57
2023-02-23T03:54:57.931Z,66.30
2023-02-23T03:57:46.405Z,67.40
2023-02-23T04:00:38.562Z,64.23
2023-02-23T04:03:26.774Z,70.50
2023-02-23T04:06:14.611Z,60.87
2023-02-23T04:09:00.732Z,59.33
2023-02-23T04:12:10.891Z,59.93
2023-02-23T04:14:49.464Z,61.17
2023-02-23T04:17:17.118Z,58.10
2023-02-23T04:19:54.961Z,61.47
2023-02-23T04:22:23.115Z,58.07
2023-02-23T04:24:51.034Z,56.63
2023-02-23T04:27:18.473Z,62.73
2023-02-23T04:29:45.218Z,59.17
2023-02-23T04:32:17.906Z,56.87
2023-02-23T04:34:45.427Z,59.27
2023-02-23T04:37:13.250Z,58.47
2023-02-23T04:39:39.877Z,54.43
2023-02-23T04:42:06.453Z,59.13
2023-02-23T04:44:32.976Z,63.07
2023-02-23T04:46:59.478Z,54.03
2023-02-23T04:49:26.030Z,54.20
2023-02-23T04:51:52.511Z,55.40
2023-02-23T04:54:19.030Z,56.53
2023-02-23T04:56:45.496Z,49.73
2023-02-23T04:59:12.525Z,55.90
2023-02-23T05:01:39.080Z,55.37
2023-02-23T05:04:05.659Z,52.50
2023-02-23T05:06:32.759Z,53.03
2023-02-23T05:08:59.276Z,53.43
2023-02-23T05:11:27.845Z,53.60
2023-02-23T05:13:54.681Z,53.83
2023-02-23T05:16:21.518Z,51.80
2023-02-23T05:18:48.748Z,52.47
2023-02-23T05:21:15.329Z,50.97
2023-02-23T05:23:42.031Z,50.77
2023-02-23T05:26:12.988Z,52.73
2023-02-23T05:28:42.021Z,50.10
2023-02-23T05:31:09.434Z,55.93
2023-02-23T05:33:43.093Z,53.83
2023-02-23T05:36:12.799Z,51.47
2023-02-23T05:38:41.562Z,53.13
2023-02-23T05:41:14.002Z,55.00
2023-02-23T05:43:40.713Z,63.47
2023-02-23T05:46:14.734Z,60.80
2023-02-23T05:48:41.298Z,57.13
2023-02-23T05:51:10.819Z,60.93
2023-02-23T05:53:37.988Z,58.87
2023-02-23T05:56:06.334Z,57.43
2023-02-23T05:58:33.002Z,58.57
2023-02-23T06:00:59.726Z,60.07
2023-02-23T06:03:26.705Z,59.43
2023-02-23T06:05:55.360Z,57.47
2023-02-23T06:08:21.906Z,58.13
2023-02-23T06:10:48.864Z,59.80
2023-02-23T06:13:16.404Z,57.07
2023-02-23T06:15:43.998Z,60.77
2023-02-23T06:18:10.984Z,59.87
2023-02-23T06:20:40.288Z,58.33
2023-02-23T06:23:07.626Z,60.63
2023-02-23T06:25:34.532Z,70.57
2023-02-23T06:28:01.040Z,66.03
2023-02-23T06:30:27.587Z,65.93
2023-02-23T06:32:54.160Z,69.67
2023-02-23T06:35:20.794Z,80.23
2023-02-23T06:37:47.310Z,74.60
2023-02-23T06:40:14.366Z,72.43
2023-02-23T06:42:40.870Z,72.57
2023-02-23T06:45:07.753Z,74.60
2023-02-23T06:47:36.827Z,71.87
2023-02-23T06:50:04.066Z,72.47
2023-02-23T06:52:30.613Z,78.73
2023-02-23T06:54:57.357Z,71.87
2023-02-23T06:57:23.904Z,72.23
2023-02-23T06:59:50.624Z,72.60
2023-02-23T07:02:17.855Z,67.43
2023-02-23T07:04:44.415Z,76.47
2023-02-23T07:07:11.955Z,73.63
2023-02-23T07:09:42.915Z,79.80
2023-02-23T07:12:10.644Z,76.87
2023-02-23T07:14:37.761Z,86.27
2023-02-23T07:17:05.635Z,79.80
2023-02-23T07:19:34.887Z,76.07
2023-02-23T07:22:01.416Z,74.07
2023-02-23T07:24:28.381Z,76.53
2023-02-23T07:26:55.263Z,84.03
2023-02-23T07:29:24.028Z,73.87
2023-02-23T07:31:50.878Z,72.43
2023-02-23T07:34:17.612Z,75.43
2023-02-23T07:36:44.219Z,72.90
2023-02-23T07:39:10.813Z,74.73
2023-02-23T07:41:37.637Z,75.20
2023-02-23T07:44:04.486Z,71.27
2023-02-23T07:46:31.027Z,74.83
2023-02-23T07:48:57.749Z,76.87
2023-02-23T07:51:24.558Z,71.47
2023-02-23T07:53:51.081Z,78.47
2023-02-23T07:56:17.709Z,69.57
2023-02-23T07:58:47.389Z,76.67
2023-02-23T08:01:14.435Z,71.70
2023-02-23T08:03:41.107Z,72.73
2023-02-23T08:06:07.944Z,71.47
2023-02-23T08:08:35.510Z,73.90
2023-02-23T08:11:03.800Z,70.90
2023-02-23T08:13:32.154Z,68.20
2023-02-23T08:15:59.700Z,72.07
2023-02-23T08:18:26.445Z,67.73
2023-02-23T08:20:58.653Z,70.03
2023-02-23T08:23:25.317Z,74.63
2023-02-23T08:25:53.834Z,73.40
2023-02-23T08:28:20.418Z,73.67
2023-02-23T08:30:47.051Z,75.67
2023-02-23T08:33:13.697Z,71.07
2023-02-23T08:35:40.183Z,67.20
2023-02-23T08:38:07.352Z,64.70
2023-02-23T08:40:33.886Z,69.57
2023-02-23T08:43:00.458Z,67.27
2023-02-23T08:45:29.384Z,61.93
2023-02-23T08:47:56.301Z,62.97
2023-02-23T08:50:25.264Z,62.27
2023-02-23T08:52:54.007Z,64.27
2023-02-23T08:55:21.801Z,61.30
2023-02-23T08:57:48.730Z,62.73
2023-02-23T09:00:16.926Z,57.17
2023-02-23T09:02:47.730Z,56.60
2023-02-23T09:05:14.889Z,55.10
2023-02-23T09:07:45.001Z,52.67
2023-02-23T09:10:19.903Z,47.20
2023-02-23T09:12:46.455Z,52.50
2023-02-23T09:15:13.100Z,50.77
2023-02-23T09:17:39.676Z,53.47
2023-02-23T09:20:06.602Z,54.03
2023-02-23T09:22:36.936Z,56.57
2023-02-23T09:25:04.924Z,51.87
2023-02-23T09:27:31.515Z,50.77
2023-02-23T09:29:58.064Z,48.90
2023-02-23T09:32:24.662Z,51.03
2023-02-23T09:34:52.513Z,48.33
2023-02-23T09:37:19.020Z,48.80
2023-02-23T09:39:45.797Z,47.13
2023-02-23T09:42:44.100Z,48.23
2023-02-23T09:45:29.789Z,49.60
2023-02-23T09:48:22.570Z,48.83
2023-02-23T09:50:55.160Z,51.70
2023-02-23T09:53:34.624Z,57.60
2023-02-23T09:56:06.883Z,53.27
2023-02-23T09:58:35.171Z,52.83
2023-02-23T10:01:32.204Z,50.00
2023-02-23T10:04:14.906Z,43.03
2023-02-23T10:06:45.568Z,46.10
2023-02-23T10:09:25.188Z,46.50
2023-02-23T10:12:10.142Z,50.17
2023-02-23T10:14:52.988Z,46.57
2023-02-23T10:17:57.780Z,42.07
2023-02-23T10:20:46.798Z,44.77
2023-02-23T10:23:21.614Z,46.97
2023-02-23T10:25:50.949Z,53.13
2023-02-23T10:28:21.852Z,49.83
2023-02-23T10:30:50.394Z,50.87
2023-02-23T10:33:30.995Z,50.80
2023-02-23T10:36:13.641Z,45.43
2023-02-23T10:38:40.559Z,51.53
2023-02-23T10:41:07.675Z,49.37
2023-02-23T10:43:34.226Z,56.20
2023-02-23T10:46:01.369Z,53.43
2023-02-23T10:48:43.235Z,51.40
2023-02-23T10:51:25.404Z,48.27
2023-02-23T10:53:53.011Z,49.50
2023-02-23T10:56:22.724Z,45.83
2023-02-23T10:58:51.957Z,46.40
2023-02-23T11:01:49.188Z,45.67
2023-02-23T11:04:32.677Z,42.00
2023-02-23T11:07:09.844Z,44.70
2023-02-23T11:09:46.463Z,46.17
2023-02-23T11:12:29.690Z,45.93
2023-02-23T11:14:58.151Z,45.17
2023-02-23T11:17:35.396Z,45.37
2023-02-23T11:20:06.479Z,44.23
2023-02-23T11:22:36.207Z,38.13
2023-02-23T11:25:12.958Z,41.40
2023-02-23T11:27:39.803Z,42.20
2023-02-23T11:30:07.767Z,40.63
2023-02-23T11:32:42.476Z,33.03
2023-02-23T11:35:12.121Z,32.43
2023-02-23T11:37:38.682Z,36.80
2023-02-23T11:40:31.851Z,36.97
2023-02-23T11:43:14.762Z,38.63
2023-02-23T11:45:53.473Z,40.57
2023-02-23T11:48:34.774Z,36.57
2023-02-23T11:51:02.259Z,36.07
2023-02-23T11:53:35.172Z,36.43
2023-02-23T11:56:07.953Z,35.03
2023-02-23T11:58:39.426Z,28.23
2023-02-23T12:01:12.309Z,39.10
2023-02-23T12:03:47.989Z,32.30
2023-02-23T12:06:36.998Z,28.60
2023-02-23T12:09:23.277Z,31.57
2023-02-23T12:12:05.425Z,27.67
2023-02-23T12:14:53.649Z,28.63
2023-02-23T12:17:27.021Z,26.80
2023-02-23T12:20:02.426Z,29.23
2023-02-23T12:22:35.318Z,27.27
2023-02-23T12:25:05.147Z,27.77
2023-02-23T12:27:46.551Z,25.43
2023-02-23T12:30:42.431Z,28.33
2023-02-23T12:33:15.465Z,29.20
2023-02-23T12:35:58.698Z,27.30
2023-02-23T12:39:06.933Z,31.87
2023-02-23T12:41:51.495Z,23.27
2023-02-23T12:44:35.497Z,25.00
2023-02-23T12:47:21.030Z,25.37
2023-02-23T12:50:04.715Z,21.17
2023-02-23T12:52:36.961Z,22.93
2023-02-23T12:55:09.477Z,24.33
2023-02-23T12:57:55.574Z,22.37
2023-02-23T13:00:59.227Z,25.90
2023-02-23T13:03:44.944Z,23.10
2023-02-23T13:06:50.335Z,22.83
2023-02-23T13:09:35.656Z,24.47
2023-02-23T13:12:23.607Z,23.43
2023-02-23T13:15:12.788Z,23.13
2023-02-23T13:17:45.930Z,24.10
2023-02-23T13:20:27.690Z,22.70
2023-02-23T13:23:18.067Z,25.73
2023-02-23T13:26:24.979Z,24.77
2023-02-23T13:28:58.714Z,21.90
2023-02-23T13:31:29.889Z,23.53
2023-02-23T13:33:58.924Z,21.07
2023-02-23T13:36:29.517Z,20.57
2023-02-23T13:39:22.496Z,19.87
2023-02-23T13:42:04.389Z,21.10
2023-02-23T13:44:58.966Z,20.27
2023-02-23T13:47:57.484Z,18.87
2023-02-23T13:50:51.710Z,20.63
2023-02-23T13:53:47.886Z,21.67
2023-02-23T13:56:20.125Z,24.67
2023-02-23T13:58:51.845Z,25.67
2023-02-23T14:01:25.990Z,22.63
2023-02-23T14:03:55.924Z,24.80
2023-02-23T14:06:25.998Z,26.80
2023-02-23T14:09:00.731Z,28.03
2023-02-23T14:11:29.961Z,28.47
2023-02-23T14:14:02.929Z,26.07
2023-02-23T14:16:30.083Z,29.27
2023-02-23T14:19:12.430Z,28.47
2023-02-23T14:22:02.664Z,26.77
2023-02-23T14:24:32.336Z,29.00
2023-02-23T14:27:08.637Z,32.63
2023-02-23T14:30:05.273Z,29.63
2023-02-23T14:32:38.570Z,34.97
2023-02-23T14:35:05.682Z,35.43
2023-02-23T14:37:58.583Z,32.37
2023-02-23T14:40:32.827Z,33.53
2023-02-23T14:43:03.334Z,34.20
2023-02-23T14:45:32.977Z,33.37
2023-02-23T14:48:05.369Z,31.37
2023-02-23T14:50:35.308Z,31.00
2023-02-23T14:53:04.452Z,32.10
2023-02-23T14:55:35.399Z,29.87
2023-02-23T14:58:21.206Z,35.67
2023-02-23T15:00:49.090Z,31.23
2023-02-23T15:03:15.564Z,31.00
2023-02-23T15:05:47.469Z,31.93
2023-02-23T15:08:17.228Z,32.10
2023-02-23T15:10:46.645Z,33.57
2023-02-23T15:13:31.865Z,35.03
2023-02-23T15:16:03.832Z,32.13
2023-02-23T15:18:36.414Z,29.63
2023-02-23T15:21:19.796Z,30.97
2023-02-23T15:23:51.086Z,31.80
2023-02-23T15:26:32.264Z,31.83
2023-02-23T15:29:13.594Z,36.07
2023-02-23T15:31:50.166Z,33.17
2023-02-23T15:34:22.023Z,33.87
2023-02-23T15:36:54.563Z,35.10
2023-02-23T15:39:35.381Z,29.47
2023-02-23T15:42:05.693Z,34.23
2023-02-23T15:44:43.562Z,34.77
2023-02-23T15:47:22.004Z,29.30
2023-02-23T15:49:50.267Z,35.43
2023-02-23T15:52:24.114Z,30.07
2023-02-23T15:55:01.588Z,28.40
2023-02-23T15:57:52.606Z,31.13
2023-02-23T16:00:32.495Z,26.60
2023-02-23T16:03:02.562Z,24.80
2023-02-23T16:05:41.869Z,25.63
2023-02-23T16:08:24.910Z,23.70
2023-02-23T16:11:03.883Z,24.63
2023-02-23T16:13:30.725Z,19.33
2023-02-23T16:15:57.586Z,22.70
2023-02-23T16:18:37.254Z,20.13
2023-02-23T16:21:05.012Z,25.17
2023-02-23T16:23:44.614Z,22.40
2023-02-23T16:26:19.389Z,21.67
2023-02-23T16:28:47.182Z,23.77
2023-02-23T16:31:20.254Z,21.70
2023-02-23T16:33:57.138Z,23.97
2023-02-23T16:36:33.477Z,22.03
2023-02-23T16:39:02.502Z,24.10
2023-02-23T16:41:31.569Z,27.70
2023-02-23T16:44:00.797Z,23.63
2023-02-23T16:46:37.739Z,23.10
2023-02-23T16:49:10.214Z,24.77
2023-02-23T16:51:36.903Z,20.83
2023-02-23T16:54:04.110Z,22.27
2023-02-23T16:56:31.282Z,22.37
2023-02-23T16:59:03.079Z,21.73
2023-02-23T17:01:29.689Z,19.40
2023-02-23T17:03:56.377Z,23.10
2023-02-23T17:06:23.308Z,23.93
2023-02-23T17:08:57.586Z,21.83
2023-02-23T17:11:25.789Z,20.13
2023-02-23T17:13:52.326Z,24.70
2023-02-23T17:16:19.767Z,19.67
2023-02-23T17:18:46.627Z,25.23
2023-02-23T17:21:23.745Z,21.53
2023-02-23T17:23:51.921Z,22.73
2023-02-23T17:26:23.613Z,21.43
2023-02-23T17:28:51.495Z,22.23
2023-02-23T17:31:20.137Z,23.47
2023-02-23T17:33:47.591Z,19.83
2023-02-23T17:36:16.403Z,19.33
2023-02-23T17:38:46.419Z,19.60
2023-02-23T17:41:19.229Z,19.27
2023-02-23T17:43:46.242Z,18.60
2023-02-23T17:46:13.627Z,17.67
2023-02-23T17:48:40.915Z,20.60
2023-02-23T17:51:12.091Z,15.80
2023-02-23T17:53:39.965Z,16.63
2023-02-23T17:56:06.927Z,18.17
2023-02-23T17:58:33.689Z,23.40
2023-02-23T18:01:02.274Z,23.70
2023-02-23T18:03:32.137Z,20.37
2023-02-23T18:06:01.086Z,19.87
2023-02-23T18:08:30.250Z,19.73
2023-02-23T18:10:57.523Z,21.03
2023-02-23T18:13:24.992Z,21.30
2023-02-23T18:15:53.535Z,19.40
2023-02-23T18:18:21.495Z,17.90
2023-02-23T18:20:52.322Z,19.60
2023-02-23T18:23:19.900Z,19.50
2023-02-23T18:25:47.102Z,16.17
2023-02-23T18:28:14.799Z,21.87
2023-02-23T18:30:42.386Z,21.83
2023-02-23T18:33:12.415Z,26.57
2023-02-23T18:35:42.939Z,22.03
2023-02-23T18:38:14.793Z,22.03
2023-02-23T18:40:41.925Z,24.17
2023-02-23T18:43:08.730Z,28.93
2023-02-23T18:45:35.321Z,29.87
2023-02-23T18:48:01.938Z,41.53
2023-02-23T18:50:28.552Z,31.23
2023-02-23T18:52:56.581Z,23.00
2023-02-23T18:55:26.260Z,25.47
2023-02-23T18:57:52.864Z,27.20
2023-02-23T19:00:20.434Z,21.47
2023-02-23T19:02:47.608Z,20.90
2023-02-23T19:05:15.645Z,19.77
2023-02-23T19:07:42.637Z,21.87
2023-02-23T19:10:12.303Z,20.30
2023-02-23T19:12:39.709Z,17.23
2023-02-23T19:15:08.225Z,18.73
2023-02-23T19:17:35.943Z,20.37
2023-02-23T19:20:02.562Z,19.07
2023-02-23T19:22:29.752Z,19.87
2023-02-23T19:24:56.286Z,18.97
2023-02-23T19:27:23.027Z,18.70
2023-02-23T19:29:49.581Z,18.23
2023-02-23T19:32:18.888Z,19.03
2023-02-23T19:34:48.052Z,21.00
2023-02-23T19:37:14.671Z,18.77
2023-02-23T19:39:41.323Z,20.57
2023-02-23T19:42:08.714Z,18.07
2023-02-23T19:44:35.233Z,18.60
2023-02-23T19:47:01.770Z,20.03
2023-02-23T19:49:28.346Z,21.80
2023-02-23T19:51:54.868Z,20.87
2023-02-23T19:54:21.716Z,20.27
2023-02-23T19:56:49.980Z,24.20
2023-02-23T19:59:18.743Z,19.73
2023-02-23T20:01:46.290Z,19.93
2023-02-23T20:04:12.954Z,21.63
2023-02-23T20:06:44.753Z,19.80
2023-02-23T20:09:11.695Z,16.90
2023-02-23T20:11:38.213Z,19.37
2023-02-23T20:14:05.243Z,22.40
2023-02-23T20:16:31.947Z,22.63
2023-02-23T20:18:59.126Z,22.37
2023-02-23T20:21:30.672Z,26.70
2023-02-23T20:23:57.879Z,23.97
2023-02-23T20:26:28.017Z,24.63
2023-02-23T20:28:56.267Z,18.93
2023-02-23T20:31:26.504Z,20.53
2023-02-23T20:33:56.076Z,19.67
2023-02-23T20:36:23.524Z,18.50
2023-02-23T20:38:50.251Z,18.93
2023-02-23T20:41:17.602Z,21.80
2023-02-23T20:43:45.371Z,17.93
2023-02-23T20:46:13.675Z,14.60
2023-02-23T20:48:40.961Z,11.50
2023-02-23T20:51:12.912Z,11.83
2023-02-23T20:53:46.641Z,13.60
2023-02-23T20:56:16.506Z,14.10
2023-02-23T20:58:43.814Z,11.77
2023-02-23T21:01:22.976Z,12.50
2023-02-23T21:03:51.860Z,12.03
2023-02-23T21:06:20.106Z,11.07
2023-02-23T21:08:49.301Z,15.63
2023-02-23T21:11:17.755Z,15.60
2023-02-23T21:13:44.497Z,16.23
2023-02-23T21:16:15.274Z,18.27
2023-02-23T21:18:42.758Z,14.97
2023-02-23T21:21:10.264Z,16.20
2023-02-23T21:23:45.322Z,19.23
2023-02-23T21:26:16.037Z,18.37
2023-02-23T21:28:44.866Z,19.73
2023-02-23T21:31:13.565Z,15.03
2023-02-23T21:33:42.003Z,14.73
2023-02-23T21:36:10.686Z,18.40
2023-02-23T21:38:42.432Z,12.97
2023-02-23T21:41:10.062Z,17.37
2023-02-23T21:43:38.311Z,12.77
2023-02-23T21:46:14.139Z,17.87
2023-02-23T21:48:41.885Z,19.43
2023-02-23T21:51:14.343Z,22.70
2023-02-23T21:53:41.595Z,17.03
2023-02-23T21:56:17.189Z,17.67
2023-02-23T21:58:47.441Z,15.93
2023-02-23T22:01:16.174Z,16.80
2023-02-23T22:03:44.818Z,14.57
2023-02-23T22:06:19.358Z,17.73
2023-02-23T22:08:47.612Z,14.40
2023-02-23T22:11:17.636Z,19.00
2023-02-23T22:13:48.783Z,15.07
2023-02-23T22:16:17.870Z,15.07
2023-02-23T22:18:44.667Z,21.30
2023-02-23T22:21:12.725Z,17.83
2023-02-23T22:23:48.033Z,16.50
2023-02-23T22:26:14.655Z,24.63
2023-02-23T22:28:41.231Z,18.90
2023-02-23T22:31:12.118Z,13.43
2023-02-23T22:33:41.778Z,18.53
2023-02-23T22:36:13.426Z,17.10
2023-02-23T22:38:43.576Z,17.53
2023-02-23T22:41:11.736Z,17.63
2023-02-23T22:43:40.137Z,15.47
2023-02-23T22:46:07.936Z,22.77
2023-02-23T22:48:36.296Z,24.00
2023-02-23T22:51:03.374Z,19.87
2023-02-23T22:53:30.338Z,23.70
2023-02-23T22:55:57.300Z,17.63
2023-02-23T22:58:26.521Z,16.10
2023-02-23T23:01:03.948Z,16.33
2023-02-23T23:03:42.588Z,19.00
2023-02-23T23:06:10.965Z,14.97
2023-02-23T23:08:40.786Z,28.30
2023-02-23T23:11:16.411Z,28.27
2023-02-23T23:13:45.760Z,27.77
2023-02-23T23:16:29.112Z,29.40
2023-02-23T23:19:12.297Z,23.80
2023-02-23T23:21:42.029Z,22.70
2023-02-23T23:24:13.362Z,23.57
2023-02-23T23:26:41.095Z,19.33
2023-02-23T23:29:11.426Z,28.90
2023-02-23T23:31:39.895Z,21.60
2023-02-23T23:34:11.963Z,29.07
2023-02-23T23:36:43.115Z,23.40
2023-02-23T23:39:15.338Z,31.90
2023-02-23T23:41:43.496Z,31.03
2023-02-23T23:44:10.800Z,25.00
2023-02-23T23:46:38.994Z,24.83
2023-02-23T23:49:11.123Z,33.77
2023-02-23T23:51:45.047Z,32.20
2023-02-23T23:54:14.903Z,28.63
2023-02-23T23:56:41.925Z,23.53
2023-02-23T23:59:11.108Z,24.80
